Time;durP1;ratioP1;P1;durP2;ratioP2;P2;SDS_P1;SDS_P2;PMS_P1;PMS_P2;Temp;Humidity;BMP_temperature;BMP_pressure;BME280_temperature;BME280_humidity;BME280_pressure;Samples;Min_cycle;Max_cycle;Signal;HPM_P1;HPM_P2
2021/08/15 00:02:16;;;;;;;4.10;3.70;;;15.80;74.10;;;;;;5023004;27;96418;-52
2021/08/15 00:04:47;;;;;;;3.85;3.25;;;15.80;74.10;;;;;;5024985;27;95667;-53
2021/08/15 00:07:19;;;;;;;4.97;3.55;;;15.80;74.00;;;;;;5025183;27;96037;-54
2021/08/15 00:09:49;;;;;;;7.50;4.50;;;15.80;74.00;;;;;;5022633;27;95725;-55
2021/08/15 00:12:19;;;;;;;4.10;3.20;;;15.80;73.90;;;;;;5026743;27;96810;-54
2021/08/15 00:14:50;;;;;;;3.80;3.50;;;15.80;73.90;;;;;;5011592;27;95952;-54
2021/08/15 00:17:21;;;;;;;3.38;3.00;;;15.80;73.90;;;;;;5022830;27;95524;-54
2021/08/15 00:19:52;;;;;;;;;;;15.80;73.80;;;;;;5027265;27;95782;-57
2021/08/15 00:22:23;;;;;;;4.60;3.20;;;15.80;73.80;;;;;;5022540;27;95984;-55
2021/08/15 00:24:54;;;;;;;3.38;3.08;;;15.80;73.60;;;;;;5024108;27;96655;-57
2021/08/15 00:27:25;;;;;;;5.35;3.10;;;15.80;74.00;;;;;;5026678;27;95971;-57
2021/08/15 00:29:56;;;;;;;4.55;2.78;;;15.70;73.60;;;;;;5026361;28;95249;-54
2021/08/15 00:32:28;;;;;;;2.90;2.42;;;15.80;73.60;;;;;;5025032;27;95889;-54
2021/08/15 00:34:58;;;;;;;3.15;2.85;;;15.80;74.20;;;;;;5013125;27;96112;-56
2021/08/15 00:37:28;;;;;;;4.50;2.67;;;15.80;73.40;;;;;;5022190;28;95543;-57
2021/08/15 00:39:58;;;;;;;2.33;1.90;;;15.80;73.50;;;;;;5030633;27;95766;-55
2021/08/15 00:42:28;;;;;;;2.47;2.08;;;15.80;73.40;;;;;;5011274;28;97277;-56
2021/08/15 00:44:59;;;;;;;3.47;1.95;;;15.80;73.40;;;;;;5029429;27;95829;-55
2021/08/15 00:47:32;;;;;;;2.33;2.03;;;15.80;73.40;;;;;;5021500;27;95538;-55
2021/08/15 00:50:05;;;;;;;4.55;2.17;;;15.80;73.40;;;;;;5023372;27;95791;-55
2021/08/15 00:52:36;;;;;;;3.42;2.63;;;15.80;73.50;;;;;;5027738;28;95976;-54
2021/08/15 00:55:11;;;;;;;3.50;2.63;;;15.80;73.50;;;;;;5029584;27;96017;-58
2021/08/15 00:57:46;;;;;;;2.55;1.80;;;15.90;73.60;;;;;;5024870;28;95832;-56
2021/08/15 01:00:18;;;;;;;2.63;1.80;;;15.80;73.50;;;;;;5026003;27;99821;-56
2021/08/15 01:02:48;;;;;;;4.40;1.77;;;15.90;73.50;;;;;;5029033;28;102010;-55
2021/08/15 01:05:19;;;;;;;3.42;2.25;;;15.90;73.40;;;;;;5029598;27;95295;-55
2021/08/15 01:07:50;;;;;;;1.92;1.58;;;15.90;73.40;;;;;;5028618;28;95849;-54
2021/08/15 01:10:22;;;;;;;2.30;1.83;;;15.90;74.00;;;;;;5041696;27;96426;-56
2021/08/15 01:12:53;;;;;;;1.70;1.60;;;15.90;73.30;;;;;;5012919;28;96515;-55
2021/08/15 01:15:24;;;;;;;1.80;1.60;;;15.90;73.20;;;;;;5021612;27;98837;-55
2021/08/15 01:17:55;;;;;;;2.33;2.05;;;15.90;73.10;;;;;;5023881;28;96162;-57
2021/08/15 01:20:25;;;;;;;2.65;1.58;;;15.90;73.20;;;;;;5011938;28;95709;-56
2021/08/15 01:22:56;;;;;;;1.60;1.50;;;16.00;73.30;;;;;;5028700;28;97081;-56
2021/08/15 01:25:27;;;;;;;1.60;1.50;;;16.00;73.30;;;;;;5028119;27;95954;-56
2021/08/15 01:27:58;;;;;;;2.85;1.70;;;16.10;73.30;;;;;;5027309;27;96355;-53
2021/08/15 01:30:29;;;;;;;1.98;1.42;;;16.10;73.20;;;;;;5039746;27;95936;-56
2021/08/15 01:33:00;;;;;;;2.33;1.42;;;16.20;73.20;;;;;;5028408;27;96350;-57
2021/08/15 01:35:32;;;;;;;2.20;1.50;;;16.20;72.90;;;;;;5014581;27;96046;-56
2021/08/15 01:38:04;;;;;;;2.95;2.00;;;16.20;72.80;;;;;;5021240;28;95406;-57
2021/08/15 01:40:34;;;;;;;2.42;1.77;;;16.30;72.70;;;;;;5027348;27;95620;-54
2021/08/15 01:43:04;;;;;;;2.15;1.63;;;16.40;72.60;;;;;;5025402;27;96426;-56
2021/08/15 01:45:34;;;;;;;2.15;1.60;;;16.50;72.60;;;;;;5023637;27;95833;-55
2021/08/15 01:48:06;;;;;;;1.33;1.15;;;16.60;72.50;;;;;;5029063;28;95891;-52
2021/08/15 01:50:36;;;;;;;2.20;1.42;;;16.70;72.40;;;;;;5029695;27;95837;-55
2021/08/15 01:53:13;;;;;;;1.90;1.17;;;16.80;72.20;;;;;;5028354;28;96425;-53
2021/08/15 01:55:44;;;;;;;1.30;1.20;;;16.90;72.00;;;;;;5028805;27;96777;-50
2021/08/15 01:58:15;;;;;;;2.22;1.30;;;17.10;71.80;;;;;;5027112;28;95888;-52
2021/08/15 02:00:47;;;;;;;1.33;1.25;;;17.20;71.70;;;;;;5017123;27;95733;-52
2021/08/15 02:03:17;;;;;;;2.70;1.00;;;17.30;71.50;;;;;;5022508;27;96610;-52
2021/08/15 02:05:48;;;;;;;1.02;1.02;;;17.40;71.30;;;;;;5014058;27;95728;-52
2021/08/15 02:08:20;;;;;;;1.17;1.10;;;17.50;71.20;;;;;;5018955;27;95935;-50
2021/08/15 02:10:52;;;;;;;1.55;1.40;;;17.60;71.00;;;;;;5017569;27;95716;-51
2021/08/15 02:13:23;;;;;;;1.10;1.00;;;17.70;70.80;;;;;;5018347;27;96024;-50
2021/08/15 02:15:55;;;;;;;2.63;1.00;;;17.80;70.60;;;;;;5012966;27;95731;-50
2021/08/15 02:18:28;;;;;;;2.25;1.02;;;17.90;70.40;;;;;;5016900;27;96410;-52
2021/08/15 02:20:59;;;;;;;1.48;0.95;;;18.00;70.20;;;;;;5014804;27;96034;-51
2021/08/15 02:23:29;;;;;;;1.50;0.95;;;18.10;70.00;;;;;;5018875;27;95847;-52
2021/08/15 02:25:59;;;;;;;1.20;1.10;;;18.20;69.70;;;;;;5012443;27;95261;-51
2021/08/15 02:28:31;;;;;;;1.10;0.93;;;18.20;69.50;;;;;;5016192;27;97612;-55
2021/08/15 02:31:03;;;;;;;1.20;0.95;;;18.40;69.40;;;;;;5017917;27;95744;-55
2021/08/15 02:33:36;;;;;;;0.82;0.80;;;18.40;69.20;;;;;;5023887;27;95925;-53
2021/08/15 02:36:07;;;;;;;1.38;1.10;;;18.50;68.90;;;;;;5013986;27;95412;-54
2021/08/15 02:38:37;;;;;;;1.25;0.95;;;18.60;68.80;;;;;;5023032;27;95318;-57
2021/08/15 02:41:07;;;;;;;1.40;1.17;;;18.70;68.60;;;;;;5019885;27;95994;-55
2021/08/15 02:43:37;;;;;;;0.80;0.80;;;18.70;68.40;;;;;;5020282;27;95957;-57
2021/08/15 02:46:08;;;;;;;;;;;18.80;68.30;;;;;;5014991;27;95985;-55
2021/08/15 02:48:40;;;;;;;1.85;1.30;;;18.90;68.10;;;;;;5027471;27;95669;-54
2021/08/15 02:51:10;;;;;;;1.57;1.27;;;18.90;68.00;;;;;;5023914;27;95859;-53
2021/08/15 02:53:40;;;;;;;1.30;1.20;;;19.00;67.90;;;;;;5016917;27;96023;-56
2021/08/15 02:56:11;;;;;;;1.42;1.08;;;19.00;67.70;;;;;;5017349;27;95882;-53
2021/08/15 02:58:41;;;;;;;1.08;0.95;;;19.10;67.60;;;;;;5036865;27;95623;-57
2021/08/15 03:01:11;;;;;;;1.00;0.90;;;19.20;68.20;;;;;;5015396;27;95938;-56
2021/08/15 03:03:41;;;;;;;0.80;0.80;;;19.20;67.30;;;;;;5018152;27;95940;-56
2021/08/15 03:06:11;;;;;;;1.98;1.30;;;19.30;67.20;;;;;;5004433;27;95897;-56
2021/08/15 03:08:42;;;;;;;0.90;0.90;;;19.30;67.00;;;;;;5018507;27;95894;-58
2021/08/15 03:11:13;;;;;;;0.87;0.80;;;19.30;66.80;;;;;;5031451;27;95834;-53
2021/08/15 03:13:44;;;;;;;1.00;0.93;;;19.40;66.80;;;;;;5018096;27;96413;-58
2021/08/15 03:16:16;;;;;;;1.15;0.95;;;19.40;66.70;;;;;;5008862;27;95663;-57
2021/08/15 03:18:47;;;;;;;1.10;1.00;;;19.40;66.60;;;;;;5014569;27;95457;-52
2021/08/15 03:21:20;;;;;;;2.42;0.98;;;19.50;66.80;;;;;;5022250;27;96033;-56
2021/08/15 03:23:52;;;;;;;4.75;1.33;;;19.50;66.20;;;;;;5022720;27;95913;-53
2021/08/15 03:26:24;;;;;;;2.13;1.35;;;19.60;66.20;;;;;;5018838;27;95485;-56
2021/08/15 03:28:55;;;;;;;1.17;1.08;;;19.60;66.00;;;;;;5015491;27;95585;-55
2021/08/15 03:31:25;;;;;;;;;;;19.70;66.00;;;;;;5016301;27;95567;-55
2021/08/15 03:33:57;;;;;;;1.50;1.13;;;19.70;65.90;;;;;;5015422;27;96307;-56
2021/08/15 03:36:28;;;;;;;2.20;0.93;;;19.70;65.80;;;;;;5013107;27;95752;-56
2021/08/15 03:38:58;;;;;;;1.05;1.00;;;19.80;65.70;;;;;;5027245;27;95802;-55
2021/08/15 03:41:28;;;;;;;1.35;0.98;;;19.80;65.70;;;;;;5045978;27;95943;-56
2021/08/15 03:43:58;;;;;;;1.33;0.98;;;19.90;65.50;;;;;;5004947;28;96254;-54
2021/08/15 03:46:29;;;;;;;1.27;1.17;;;19.90;65.50;;;;;;5025741;27;95958;-55
2021/08/15 03:48:59;;;;;;;0.88;0.88;;;19.90;65.60;;;;;;5034652;27;95647;-55
2021/08/15 03:51:29;;;;;;;1.50;1.23;;;20.00;65.30;;;;;;5028859;27;96011;-56
2021/08/15 03:53:59;;;;;;;2.35;1.30;;;20.00;65.30;;;;;;5029401;28;95866;-55
2021/08/15 03:56:30;;;;;;;1.15;1.05;;;20.00;65.10;;;;;;5026162;27;95379;-55
2021/08/15 03:59:01;;;;;;;1.48;1.23;;;20.10;65.00;;;;;;5017299;27;95642;-56
2021/08/15 04:01:31;;;;;;;0.90;0.90;;;20.10;65.10;;;;;;5026568;27;95774;-55
2021/08/15 04:04:02;;;;;;;1.52;1.35;;;20.10;64.70;;;;;;5030445;28;95698;-53
2021/08/15 04:06:37;;;;;;;4.03;2.60;;;20.20;60.20;;;;;;5001671;27;98805;-53
2021/08/15 04:09:10;;;;;;;3.17;2.38;;;19.70;51.90;;;;;;5024260;28;95708;-52
2021/08/15 04:11:41;;;;;;;4.13;2.00;;;19.50;54.30;;;;;;5023068;27;97016;-52
2021/08/15 04:14:22;;;;;;;3.17;2.10;;;19.20;48.00;;;;;;5023964;28;95863;-51
2021/08/15 04:16:53;;;;;;;3.15;2.28;;;19.20;49.00;;;;;;5019717;27;97830;-54
2021/08/15 04:19:26;;;;;;;4.50;2.63;;;19.20;49.80;;;;;;5024640;28;95954;-56
2021/08/15 04:21:58;;;;;;;3.90;2.40;;;19.00;48.30;;;;;;5024195;27;95718;-55
2021/08/15 04:24:33;;;;;;;3.40;2.30;;;19.00;49.10;;;;;;5021622;28;95841;-56
2021/08/15 04:27:05;;;;;;;3.17;1.90;;;18.80;47.70;;;;;;5021290;27;95883;-55
2021/08/15 04:29:39;;;;;;;4.32;2.42;;;18.60;47.30;;;;;;5022298;27;95318;-52
2021/08/15 04:32:10;;;;;;;3.45;1.98;;;18.70;48.90;;;;;;5020822;27;96676;-52
2021/08/15 04:34:43;;;;;;;3.72;2.15;;;18.70;47.80;;;;;;5016636;27;95910;-56
2021/08/15 04:37:13;;;;;;;2.92;1.98;;;18.50;46.10;;;;;;5015590;27;95766;-56
2021/08/15 04:39:43;;;;;;;2.30;1.77;;;18.50;44.40;;;;;;5023212;28;95820;-54
2021/08/15 04:42:13;;;;;;;3.78;1.92;;;18.50;46.50;;;;;;5025880;27;95629;-55
2021/08/15 04:44:43;;;;;;;2.97;1.73;;;18.30;43.60;;;;;;5023274;28;95862;-53
2021/08/15 04:47:14;;;;;;;2.07;1.73;;;18.20;45.60;;;;;;5019182;28;95664;-54
2021/08/15 04:49:45;;;;;;;3.33;1.88;;;18.30;45.30;;;;;;5024585;27;95299;-53
2021/08/15 04:52:15;;;;;;;2.43;1.90;;;18.30;46.60;;;;;;5021192;28;95855;-57
2021/08/15 04:54:47;;;;;;;4.88;1.77;;;18.20;46.10;;;;;;5023069;27;96246;-53
2021/08/15 04:57:18;;;;;;;4.85;3.17;;;18.10;45.20;;;;;;5004891;28;96227;-53
2021/08/15 04:59:48;;;;;;;4.30;2.10;;;18.10;45.70;;;;;;5006514;28;97988;-57
2021/08/15 05:02:18;;;;;;;7.57;2.38;;;18.20;46.30;;;;;;5018994;27;95669;-51
2021/08/15 05:04:50;;;;;;;3.30;1.30;;;18.20;46.50;;;;;;5022148;27;95880;-55
2021/08/15 05:07:21;;;;;;;2.50;1.20;;;18.20;43.60;;;;;;5024416;28;95831;-55
2021/08/15 05:09:52;;;;;;;;;;;18.10;44.50;;;;;;5022954;27;95960;-56
2021/08/15 05:12:23;;;;;;;1.20;1.10;;;18.20;45.60;;;;;;5022409;27;96470;-55
2021/08/15 05:14:53;;;;;;;1.50;1.30;;;18.20;45.30;;;;;;5020189;27;96719;-55
2021/08/15 05:17:25;;;;;;;2.53;1.33;;;18.30;45.00;;;;;;5016487;27;95956;-52
2021/08/15 05:19:56;;;;;;;2.83;1.52;;;18.20;44.30;;;;;;5021901;27;96167;-53
2021/08/15 05:22:27;;;;;;;3.55;1.60;;;18.20;45.60;;;;;;5024201;27;95784;-55
2021/08/15 05:24:57;;;;;;;3.60;1.70;;;18.30;45.80;;;;;;5022881;27;95861;-53
2021/08/15 05:27:29;;;;;;;5.50;1.77;;;18.30;46.70;;;;;;5019372;27;96088;-54
2021/08/15 05:30:01;;;;;;;4.88;2.40;;;18.30;46.60;;;;;;5023727;27;96135;-54
2021/08/15 05:32:36;;;;;;;3.55;1.52;;;18.30;47.60;;;;;;5024225;28;95948;-55
2021/08/15 05:35:08;;;;;;;1.92;1.33;;;18.40;46.30;;;;;;5012072;27;97728;-56
2021/08/15 05:37:41;;;;;;;4.22;1.42;;;18.20;45.60;;;;;;5018803;28;100872;-53
2021/08/15 05:40:11;;;;;;;4.05;1.38;;;18.10;44.50;;;;;;5024483;27;95741;-54
2021/08/15 05:42:42;;;;;;;2.57;1.40;;;18.20;45.80;;;;;;5024506;28;96344;-57
2021/08/15 05:45:14;;;;;;;2.97;1.77;;;18.20;47.60;;;;;;5023444;27;96568;-54
2021/08/15 05:47:45;;;;;;;3.60;1.48;;;18.20;46.50;;;;;;5004551;28;96381;-54
2021/08/15 05:50:17;;;;;;;4.15;1.48;;;18.20;47.50;;;;;;5022923;27;95926;-56
2021/08/15 05:52:47;;;;;;;2.10;1.37;;;18.20;47.50;;;;;;5021711;28;95675;-55
2021/08/15 05:55:19;;;;;;;2.33;1.75;;;18.20;47.30;;;;;;5037997;27;97878;-54
2021/08/15 05:57:48;;;;;;;2.70;1.30;;;18.30;47.30;;;;;;5023214;28;95870;-53
2021/08/15 06:00:21;;;;;;;3.20;1.65;;;18.30;49.00;;;;;;5017391;27;96133;-54
2021/08/15 06:02:52;;;;;;;2.15;1.65;;;18.30;46.90;;;;;;5020689;28;95964;-56
2021/08/15 06:05:23;;;;;;;2.25;1.23;;;18.10;45.20;;;;;;5013670;27;98498;-53
2021/08/15 06:07:54;;;;;;;;;;;17.90;45.70;;;;;;5023302;28;96121;-53
2021/08/15 06:10:24;;;;;;;5.90;1.33;;;17.80;45.30;;;;;;5024163;28;95936;-52
2021/08/15 06:12:53;;;;;;;1.45;0.90;;;17.80;44.80;;;;;;5025347;27;95738;-54
2021/08/15 06:15:27;;;;;;;3.10;1.27;;;17.60;44.20;;;;;;5018974;28;97382;-52
2021/08/15 06:18:01;;;;;;;1.73;1.25;;;17.60;46.20;;;;;;5023924;27;96421;-55
2021/08/15 06:20:33;;;;;;;2.28;1.48;;;17.60;47.30;;;;;;5029023;28;95538;-51
2021/08/15 06:23:04;;;;;;;2.13;1.60;;;17.70;48.30;;;;;;5029328;27;95536;-54
2021/08/15 06:25:34;;;;;;;3.75;2.17;;;17.60;46.70;;;;;;5025338;28;95832;-53
2021/08/15 06:28:05;;;;;;;2.83;1.95;;;17.50;46.90;;;;;;5027324;27;95732;-54
2021/08/15 06:30:36;;;;;;;2.83;1.42;;;17.50;47.20;;;;;;5023125;27;98631;-55
2021/08/15 06:33:08;;;;;;;4.18;2.50;;;17.40;46.90;;;;;;5028867;27;95348;-53
2021/08/15 06:35:39;;;;;;;4.85;2.92;;;17.20;44.80;;;;;;5010351;28;95928;-51
2021/08/15 06:38:08;;;;;;;7.72;4.55;;;17.10;45.20;;;;;;5009226;28;96010;-52
2021/08/15 06:40:38;;;;;;;4.57;2.63;;;17.10;46.20;;;;;;5027534;28;95608;-55
2021/08/15 06:43:12;;;;;;;4.07;2.50;;;17.10;46.70;;;;;;5024716;27;95842;-53
2021/08/15 06:45:44;;;;;;;4.47;1.80;;;17.00;46.90;;;;;;5016926;27;95856;-51
2021/08/15 06:48:16;;;;;;;4.90;2.80;;;17.10;47.40;;;;;;5027551;27;95598;-53
2021/08/15 06:50:53;;;;;;;5.25;2.58;;;17.00;47.40;;;;;;5024231;27;95977;-52
2021/08/15 06:53:29;;;;;;;4.13;2.33;;;17.10;47.80;;;;;;5022338;27;96247;-54
2021/08/15 06:56:01;;;;;;;3.88;1.92;;;17.00;47.20;;;;;;5024315;28;96528;-52
2021/08/15 06:58:32;;;;;;;6.95;3.13;;;16.90;47.40;;;;;;5026359;27;96130;-53
2021/08/15 07:01:02;;;;;;;7.00;2.17;;;16.90;47.70;;;;;;5022087;28;95400;-52
2021/08/15 07:03:33;;;;;;;3.33;1.83;;;17.00;48.50;;;;;;5004691;28;95208;-53
2021/08/15 07:06:03;;;;;;;2.70;1.53;;;16.90;46.50;;;;;;5040796;27;96316;-52
2021/08/15 07:08:33;;;;;;;3.85;1.90;;;16.80;46.40;;;;;;5027474;27;96175;-54
2021/08/15 07:11:03;;;;;;;4.07;2.08;;;16.80;46.50;;;;;;5027774;28;96068;-53
2021/08/15 07:13:33;;;;;;;4.53;2.78;;;16.80;47.20;;;;;;5028154;27;95257;-54
2021/08/15 07:16:05;;;;;;;5.47;2.75;;;16.70;47.30;;;;;;5020872;27;96817;-52
2021/08/15 07:18:36;;;;;;;3.75;2.30;;;16.80;47.10;;;;;;5025535;27;95595;-54
2021/08/15 07:21:08;;;;;;;3.65;2.80;;;16.70;47.30;;;;;;5030591;27;95731;-52
2021/08/15 07:23:39;;;;;;;3.50;2.25;;;16.70;47.10;;;;;;5030452;27;95799;-54
2021/08/15 07:26:09;;;;;;;5.35;2.60;;;16.60;46.90;;;;;;5027410;27;95841;-54
2021/08/15 07:28:40;;;;;;;4.45;2.55;;;16.60;47.60;;;;;;5027045;27;96901;-53
2021/08/15 07:31:12;;;;;;;;;;;16.50;47.00;;;;;;5018873;27;95324;-53
2021/08/15 07:33:43;;;;;;;3.08;2.45;;;16.40;47.20;;;;;;5022182;27;95370;-53
2021/08/15 07:36:15;;;;;;;5.45;2.70;;;16.40;47.50;;;;;;5016299;27;96765;-52
2021/08/15 07:38:46;;;;;;;10.25;7.38;;;16.40;47.60;;;;;;5025625;27;95939;-53
2021/08/15 07:41:16;;;;;;;11.57;7.65;;;16.40;48.10;;;;;;5042495;27;96854;-53
2021/08/15 07:43:46;;;;;;;7.47;5.88;;;16.40;48.20;;;;;;5022289;27;95872;-53
2021/08/15 07:46:17;;;;;;;6.47;4.63;;;16.30;48.00;;;;;;5022674;27;96004;-53
2021/08/15 07:48:48;;;;;;;5.87;4.80;;;16.30;48.10;;;;;;5029906;28;95922;-52
2021/08/15 07:51:18;;;;;;;4.75;3.20;;;16.20;48.20;;;;;;5028356;27;95871;-52
2021/08/15 07:53:48;;;;;;;3.58;2.78;;;16.20;48.70;;;;;;5030095;28;95891;-54
2021/08/15 07:56:19;;;;;;;7.82;3.55;;;16.10;48.50;;;;;;5013243;28;95850;-53
2021/08/15 07:58:49;;;;;;;5.15;3.92;;;16.20;48.50;;;;;;5030353;28;95707;-53
2021/08/15 08:01:19;;;;;;;10.52;6.70;;;16.20;48.70;;;;;;5026497;27;95760;-53
2021/08/15 08:03:50;;;;;;;9.93;6.40;;;16.20;48.50;;;;;;5030739;28;95867;-52
2021/08/15 08:06:23;;;;;;;10.13;6.35;;;16.20;49.20;;;;;;5028980;27;97682;-54
2021/08/15 08:08:53;;;;;;;6.43;4.63;;;16.20;50.50;;;;;;5028747;28;95651;-55
2021/08/15 08:11:23;;;;;;;6.72;4.30;;;16.40;51.80;;;;;;5030958;27;95817;-53
2021/08/15 08:13:56;;;;;;;7.78;3.85;;;16.50;52.40;;;;;;5030512;28;95241;-54
2021/08/15 08:16:27;;;;;;;5.47;3.40;;;16.60;53.40;;;;;;5025407;27;96654;-56
2021/08/15 08:18:58;;;;;;;;;;;16.60;54.00;;;;;;5030461;28;95375;-54
2021/08/15 08:21:29;;;;;;;3.65;2.72;;;16.70;54.80;;;;;;5033137;27;95741;-54
2021/08/15 08:24:04;;;;;;;5.22;2.95;;;16.80;55.20;;;;;;5027550;27;95840;-55
2021/08/15 08:26:36;;;;;;;5.95;3.58;;;16.80;55.80;;;;;;5029826;27;96001;-52
2021/08/15 08:29:06;;;;;;;4.00;2.90;;;16.80;55.80;;;;;;5030139;28;95229;-50
2021/08/15 08:31:38;;;;;;;4.93;3.10;;;16.90;56.10;;;;;;5025272;27;98845;-51
2021/08/15 08:34:09;;;;;;;5.35;3.67;;;16.80;56.10;;;;;;5024697;27;95722;-53
2021/08/15 08:36:40;;;;;;;12.68;4.20;;;16.90;56.50;;;;;;5017583;27;95908;-52
2021/08/15 08:39:10;;;;;;;8.02;4.72;;;17.00;57.00;;;;;;5029033;28;96754;-53
2021/08/15 08:41:41;;;;;;;12.37;6.47;;;17.00;57.40;;;;;;5028080;27;96015;-53
2021/08/15 08:44:13;;;;;;;10.67;5.57;;;17.00;57.60;;;;;;5029986;28;95303;-50
2021/08/15 08:46:48;;;;;;;13.10;6.25;;;17.00;58.20;;;;;;5025916;27;96087;-52
2021/08/15 08:49:19;;;;;;;13.45;6.97;;;17.00;59.00;;;;;;5027577;27;95741;-54
2021/08/15 08:51:49;;;;;;;14.48;6.22;;;17.10;59.00;;;;;;5023488;27;95589;-53
2021/08/15 08:54:28;;;;;;;15.30;5.95;;;17.10;59.30;;;;;;5036218;27;95936;-56
2021/08/15 08:57:02;;;;;;;11.95;6.65;;;17.10;59.60;;;;;;5027839;27;96573;-52
2021/08/15 08:59:36;;;;;;;12.90;6.93;;;17.10;59.90;;;;;;5028232;28;95784;-54
2021/08/15 09:02:07;;;;;;;16.15;7.50;;;17.20;60.20;;;;;;5024335;27;96185;-53
2021/08/15 09:04:38;;;;;;;13.23;6.93;;;17.20;60.70;;;;;;5026302;28;95566;-54
2021/08/15 09:07:14;;;;;;;17.57;6.87;;;17.20;60.90;;;;;;5029532;28;96483;-55
2021/08/15 09:09:57;;;;;;;12.38;6.88;;;17.20;61.60;;;;;;5035207;27;95980;-52
2021/08/15 09:12:48;;;;;;;12.02;6.53;;;17.20;61.60;;;;;;5028902;28;95861;-53
2021/08/15 09:15:25;;;;;;;15.32;6.10;;;17.20;61.80;;;;;;5024518;28;95598;-53
2021/08/15 09:17:56;;;;;;;18.20;6.63;;;17.20;61.80;;;;;;5028976;27;102443;-52
2021/08/15 09:20:47;;;;;;;10.70;6.55;;;17.30;61.90;;;;;;5023955;28;95296;-55
2021/08/15 09:23:22;;;;;;;11.10;5.53;;;17.30;62.10;;;;;;5029406;27;95704;-51
2021/08/15 09:26:21;;;;;;;10.68;5.20;;;17.30;62.20;;;;;;5021335;27;95665;-52
2021/08/15 09:28:52;;;;;;;14.85;5.28;;;17.30;62.40;;;;;;5028475;27;95847;-53
2021/08/15 09:31:32;;;;;;;11.02;5.20;;;17.30;63.00;;;;;;5022900;27;99248;-54
2021/08/15 09:34:05;;;;;;;8.43;5.00;;;17.30;62.90;;;;;;5024775;27;95904;-54
2021/08/15 09:36:43;;;;;;;7.22;5.10;;;17.30;62.80;;;;;;5016604;28;96092;-53
2021/08/15 09:39:17;;;;;;;10.13;5.55;;;17.20;62.90;;;;;;5027550;27;95866;-53
2021/08/15 09:41:51;;;;;;;10.13;4.72;;;17.20;63.10;;;;;;5028403;28;96023;-53
2021/08/15 09:44:32;;;;;;;7.47;4.55;;;17.20;62.90;;;;;;5026984;27;98754;-54
2021/08/15 09:47:14;;;;;;;15.25;5.50;;;17.20;63.00;;;;;;5031972;27;95913;-51
2021/08/15 09:49:48;;;;;;;10.88;5.38;;;17.20;63.30;;;;;;5021359;27;96029;-51
2021/08/15 09:52:22;;;;;;;9.60;4.97;;;17.20;63.00;;;;;;5023925;27;95871;-56
2021/08/15 09:55:02;;;;;;;9.98;4.85;;;17.20;63.00;;;;;;5020312;27;96123;-55
2021/08/15 09:57:38;;;;;;;8.52;5.18;;;17.30;63.10;;;;;;5021532;27;95723;-53
2021/08/15 10:00:29;;;;;;;8.75;4.97;;;17.30;63.20;;;;;;5019564;27;96031;-59
2021/08/15 10:03:03;;;;;;;6.95;4.15;;;17.30;63.70;;;;;;5002169;28;101842;-54
2021/08/15 10:05:35;;;;;;;7.28;4.10;;;17.40;63.60;;;;;;5021018;27;95715;-57
2021/08/15 10:08:06;;;;;;;7.90;4.50;;;17.40;64.10;;;;;;5003741;28;95909;-54
2021/08/15 10:10:36;;;;;;;;;;;17.40;63.80;;;;;;5022647;27;96526;-55
2021/08/15 10:13:08;;;;;;;6.22;3.97;;;17.50;63.60;;;;;;5023432;27;96158;-57
2021/08/15 10:15:40;;;;;;;5.40;3.50;;;17.60;63.60;;;;;;5016676;27;96556;-54
2021/08/15 10:18:14;;;;;;;5.50;3.53;;;17.60;63.40;;;;;;5021705;27;96315;-54
2021/08/15 10:20:45;;;;;;;5.72;3.67;;;17.60;63.30;;;;;;5020659;27;95939;-54
2021/08/15 10:23:18;;;;;;;5.18;3.63;;;17.60;63.20;;;;;;5020892;27;95813;-57
2021/08/15 10:25:50;;;;;;;5.93;3.35;;;17.70;63.20;;;;;;5021899;27;95342;-55
2021/08/15 10:28:30;;;;;;;6.57;3.90;;;17.70;63.10;;;;;;5022725;27;95684;-56
2021/08/15 10:31:02;;;;;;;6.00;3.85;;;17.80;63.10;;;;;;5016850;27;96529;-55
2021/08/15 10:33:32;;;;;;;;;;;17.80;63.10;;;;;;5021138;27;95391;-54
2021/08/15 10:36:26;;;;;;;4.95;3.63;;;17.80;62.90;;;;;;5013834;27;95875;-56
2021/08/15 10:39:02;;;;;;;5.95;3.08;;;17.80;62.90;;;;;;5002937;27;96086;-56
2021/08/15 10:41:51;;;;;;;4.95;2.95;;;17.80;62.90;;;;;;5020691;27;96433;-54
2021/08/15 10:44:22;;;;;;;3.90;3.13;;;17.90;63.00;;;;;;5019566;27;95884;-53
2021/08/15 10:47:15;;;;;;;5.57;3.28;;;18.00;62.90;;;;;;5015900;27;95376;-55
2021/08/15 10:49:50;;;;;;;4.50;2.70;;;18.10;62.80;;;;;;5018512;27;96149;-55
2021/08/15 10:52:43;;;;;;;4.95;2.90;;;18.10;62.40;;;;;;5017931;27;95942;-54
2021/08/15 10:55:17;;;;;;;5.35;3.00;;;18.20;62.30;;;;;;5020355;27;97080;-56
2021/08/15 10:57:53;;;;;;;3.85;2.53;;;18.20;62.20;;;;;;5004868;28;95337;-56
2021/08/15 11:00:34;;;;;;;3.22;2.50;;;18.20;62.10;;;;;;5019710;27;96602;-55
2021/08/15 11:03:15;;;;;;;4.20;2.88;;;18.30;62.20;;;;;;5023694;27;102294;-50
2021/08/15 11:05:46;;;;;;;5.10;2.80;;;18.20;62.50;;;;;;5024592;27;96215;-55
2021/08/15 11:08:34;;;;;;;3.20;2.35;;;18.20;62.70;;;;;;5023737;27;95931;-53
2021/08/15 11:11:07;;;;;;;4.20;3.10;;;18.20;63.00;;;;;;5023848;28;95990;-54
2021/08/15 11:13:39;;;;;;;4.82;3.05;;;18.20;63.10;;;;;;5006791;28;96358;-57
2021/08/15 11:16:27;;;;;;;3.28;2.33;;;18.20;63.20;;;;;;5020793;28;96135;-54
2021/08/15 11:19:11;;;;;;;3.17;2.45;;;18.10;63.20;;;;;;5024041;27;95931;-56
2021/08/15 11:22:20;;;;;;;4.57;2.75;;;18.10;63.30;;;;;;5024780;27;95919;-55
2021/08/15 11:24:59;;;;;;;3.55;2.75;;;18.20;63.30;;;;;;4922481;28;95895;-53
2021/08/15 11:27:43;;;;;;;4.82;2.70;;;18.10;63.30;;;;;;4922597;28;95725;-53
2021/08/15 11:30:18;;;;;;;2.50;2.08;;;18.10;63.30;;;;;;4918583;28;96085;-54
2021/08/15 11:32:55;;;;;;;4.13;2.55;;;18.10;63.40;;;;;;4923067;28;96255;-56
2021/08/15 11:35:34;;;;;;;4.95;2.65;;;18.10;63.30;;;;;;4913839;28;95982;-55
2021/08/15 11:38:14;;;;;;;3.05;2.30;;;18.10;63.50;;;;;;4921027;28;96575;-56
2021/08/15 11:40:52;;;;;;;4.55;2.58;;;18.10;63.50;;;;;;4924173;28;96430;-54
2021/08/15 11:43:24;;;;;;;3.50;2.50;;;18.10;63.50;;;;;;4923984;28;95869;-56
2021/08/15 11:45:59;;;;;;;4.60;2.60;;;18.10;63.50;;;;;;4918481;28;97154;-53
2021/08/15 11:48:31;;;;;;;4.00;2.53;;;18.10;63.60;;;;;;4922484;28;95637;-54
2021/08/15 11:51:08;;;;;;;2.40;1.88;;;18.10;63.50;;;;;;4922100;28;96029;-54
2021/08/15 11:53:39;;;;;;;3.55;1.88;;;18.10;63.60;;;;;;4922060;28;95702;-55
2021/08/15 11:56:16;;;;;;;4.38;2.60;;;18.00;63.60;;;;;;4992239;27;97320;-55
2021/08/15 11:58:55;;;;;;;3.42;1.90;;;18.00;63.70;;;;;;5024473;27;95841;-57
2021/08/15 12:01:27;;;;;;;3.70;2.20;;;18.00;63.70;;;;;;5014975;27;96601;-54
2021/08/15 12:04:05;;;;;;;2.40;1.95;;;18.00;63.70;;;;;;5023871;27;95862;-52
2021/08/15 12:06:40;;;;;;;2.88;2.33;;;18.00;63.80;;;;;;5020661;27;97667;-50
2021/08/15 12:09:25;;;;;;;4.18;2.42;;;18.00;63.80;;;;;;5023115;27;96113;-56
2021/08/15 12:11:59;;;;;;;3.72;2.13;;;18.00;63.80;;;;;;5022484;27;96739;-53
2021/08/15 12:14:35;;;;;;;2.88;2.10;;;18.00;63.90;;;;;;5021556;27;95981;-52
2021/08/15 12:17:07;;;;;;;3.33;2.67;;;18.00;63.90;;;;;;5015362;27;96473;-53
2021/08/15 12:19:42;;;;;;;3.58;2.10;;;17.90;63.80;;;;;;5017386;27;97763;-52
2021/08/15 12:22:19;;;;;;;3.70;2.13;;;17.90;63.90;;;;;;5023174;27;95871;-54
2021/08/15 12:24:59;;;;;;;3.17;2.35;;;17.90;64.00;;;;;;5023772;28;95812;-57
2021/08/15 12:27:30;;;;;;;4.47;2.47;;;17.90;64.10;;;;;;5023432;28;95916;-54
2021/08/15 12:30:02;;;;;;;2.72;2.40;;;17.80;64.10;;;;;;5004129;28;97883;-53
2021/08/15 12:32:35;;;;;;;2.00;1.80;;;17.80;64.20;;;;;;5017995;27;95962;-54
2021/08/15 12:35:08;;;;;;;3.42;2.08;;;17.80;64.10;;;;;;5013863;28;96484;-50
2021/08/15 12:37:43;;;;;;;3.03;2.25;;;17.90;64.20;;;;;;5025958;28;95946;-53
2021/08/15 12:40:20;;;;;;;2.25;1.77;;;18.00;64.30;;;;;;5012242;28;96103;-51
2021/08/15 12:42:58;;;;;;;2.45;1.83;;;18.20;64.00;;;;;;5030879;27;95697;-49
2021/08/15 12:45:40;;;;;;;4.28;2.22;;;18.30;63.70;;;;;;5027649;28;95384;-56
2021/08/15 12:48:13;;;;;;;3.60;1.88;;;18.60;63.30;;;;;;5029994;28;96125;-54
2021/08/15 12:50:45;;;;;;;2.67;1.85;;;18.80;62.90;;;;;;5011468;28;96340;-50
2021/08/15 12:53:22;;;;;;;1.77;1.50;;;18.90;62.70;;;;;;5028723;27;95826;-54
2021/08/15 12:55:53;;;;;;;2.50;1.60;;;19.00;62.50;;;;;;5031529;28;95729;-52
2021/08/15 12:58:25;;;;;;;2.33;1.52;;;19.20;62.10;;;;;;5030629;27;96787;-52
2021/08/15 13:01:00;;;;;;;3.05;1.73;;;19.30;61.90;;;;;;5025770;28;95779;-52
2021/08/15 13:03:31;;;;;;;1.80;1.35;;;19.40;61.70;;;;;;5030331;27;95886;-53
2021/08/15 13:06:05;;;;;;;1.90;1.50;;;19.50;61.70;;;;;;5030489;28;95549;-53
2021/08/15 13:08:35;;;;;;;2.55;1.80;;;19.60;61.60;;;;;;5026381;27;95850;-55
2021/08/15 13:11:06;;;;;;;1.58;1.48;;;19.70;61.60;;;;;;5026875;28;96265;-54
2021/08/15 13:13:36;;;;;;;1.60;1.50;;;19.80;61.70;;;;;;5028214;27;95682;-52
2021/08/15 13:16:07;;;;;;;1.58;1.27;;;19.90;61.40;;;;;;5021225;28;96063;-53
2021/08/15 13:18:39;;;;;;;1.25;1.15;;;19.90;61.30;;;;;;5026807;27;96136;-56